createdAt,value
2023-01-30T00:01:56.528Z,100.00
2023-01-30T00:04:24.677Z,100.00
2023-01-30T00:06:52.797Z,100.00
2023-01-30T00:09:20.940Z,100.00
2023-01-30T00:11:49.063Z,100.00
2023-01-30T00:14:17.408Z,100.00
2023-01-30T00:16:46.973Z,100.00
2023-01-30T00:19:15.110Z,100.00
2023-01-30T00:21:43.235Z,100.00
2023-01-30T00:24:11.475Z,100.00
2023-01-30T00:26:39.730Z,100.00
2023-01-30T00:29:10.039Z,100.00
2023-01-30T00:31:38.164Z,100.00
2023-01-30T00:34:08.043Z,100.00
2023-01-30T00:36:36.183Z,100.00
2023-01-30T00:39:04.377Z,100.00
2023-01-30T00:41:47.921Z,100.00
2023-01-30T00:44:33.120Z,100.00
2023-01-30T00:47:08.883Z,100.00
2023-01-30T00:49:38.866Z,100.00
2023-01-30T00:52:07.366Z,100.00
2023-01-30T00:54:35.693Z,100.00
2023-01-30T00:57:03.811Z,100.00
2023-01-30T00:59:32.751Z,100.00
2023-01-30T01:02:00.899Z,100.00
2023-01-30T01:04:29.198Z,100.00
2023-01-30T01:06:58.676Z,100.00
2023-01-30T01:09:26.898Z,100.00
2023-01-30T01:11:54.970Z,100.00
2023-01-30T01:14:23.103Z,100.00
2023-01-30T01:16:51.418Z,100.00
2023-01-30T01:19:19.707Z,100.00
2023-01-30T01:21:47.838Z,100.00
2023-01-30T01:24:18.080Z,100.00
2023-01-30T01:26:47.215Z,100.00
2023-01-30T01:29:16.882Z,100.00
2023-01-30T01:31:45.859Z,100.00
2023-01-30T01:34:14.047Z,100.00
2023-01-30T01:36:54.255Z,100.00
2023-01-30T01:39:24.784Z,100.00
2023-01-30T01:41:52.208Z,100.00
2023-01-30T01:44:20.329Z,100.00
2023-01-30T01:46:52.308Z,100.00
2023-01-30T01:49:25.732Z,100.00
2023-01-30T01:51:58.788Z,100.00
2023-01-30T01:54:35.395Z,100.00
2023-01-30T01:57:06.480Z,100.00
2023-01-30T01:59:39.148Z,100.00
2023-01-30T02:02:14.335Z,100.00
2023-01-30T02:05:06.591Z,100.00
2023-01-30T02:07:41.706Z,100.00
2023-01-30T02:10:15.438Z,100.00
2023-01-30T02:12:45.000Z,100.00
2023-01-30T02:15:13.314Z,100.00
2023-01-30T02:17:41.461Z,100.00
2023-01-30T02:20:22.791Z,100.00
2023-01-30T02:23:11.472Z,100.00
2023-01-30T02:26:25.304Z,100.00
2023-01-30T02:29:13.724Z,100.00
2023-01-30T02:31:52.127Z,100.00
2023-01-30T02:34:37.671Z,100.00
2023-01-30T02:37:16.059Z,100.00
2023-01-30T02:39:59.805Z,100.00
2023-01-30T02:42:35.788Z,100.00
2023-01-30T02:45:13.404Z,100.00
2023-01-30T02:47:48.491Z,100.00
2023-01-30T02:50:22.292Z,100.00
2023-01-30T02:52:50.909Z,100.00
2023-01-30T02:55:21.124Z,100.00
2023-01-30T02:57:49.752Z,100.00
2023-01-30T03:00:21.618Z,100.00
2023-01-30T03:03:11.034Z,100.00
2023-01-30T03:06:11.941Z,100.00
2023-01-30T03:08:50.605Z,100.00
2023-01-30T03:11:24.415Z,100.00
2023-01-30T03:14:00.139Z,100.00
2023-01-30T03:16:34.421Z,100.00
2023-01-30T03:19:06.297Z,100.00
2023-01-30T03:21:34.695Z,100.00
2023-01-30T03:24:02.983Z,100.00
2023-01-30T03:26:34.104Z,100.00
2023-01-30T03:29:03.560Z,100.00
2023-01-30T03:31:32.335Z,100.00
2023-01-30T03:34:07.737Z,100.00
2023-01-30T03:36:36.222Z,100.00
2023-01-30T03:39:07.880Z,100.00
2023-01-30T03:41:36.464Z,100.00
2023-01-30T03:44:04.685Z,100.00
2023-01-30T03:46:33.874Z,100.00
2023-01-30T03:49:02.046Z,100.00
2023-01-30T03:51:31.558Z,100.00
2023-01-30T03:53:59.823Z,100.00
2023-01-30T03:56:28.145Z,100.00
2023-01-30T03:58:56.291Z,100.00
2023-01-30T04:01:33.574Z,100.00
2023-01-30T04:04:01.644Z,100.00
2023-01-30T04:06:31.444Z,100.00
2023-01-30T04:08:59.875Z,100.00
2023-01-30T04:11:38.237Z,100.00
2023-01-30T04:14:06.340Z,100.00
2023-01-30T04:16:40.418Z,100.00
2023-01-30T04:19:27.280Z,100.00
2023-01-30T04:21:57.408Z,100.00
2023-01-30T04:24:25.597Z,100.00
2023-01-30T04:26:53.717Z,100.00
2023-01-30T04:29:21.836Z,100.00
2023-01-30T04:31:52.110Z,100.00
2023-01-30T04:34:23.606Z,100.00
2023-01-30T04:36:51.916Z,100.00
2023-01-30T04:39:22.215Z,100.00
2023-01-30T04:41:50.489Z,100.00
2023-01-30T04:44:18.719Z,100.00
2023-01-30T04:46:59.483Z,100.00
2023-01-30T04:49:28.077Z,100.00
2023-01-30T04:51:56.839Z,100.00
2023-01-30T04:54:26.333Z,100.00
2023-01-30T04:56:54.462Z,100.00
2023-01-30T04:59:22.628Z,100.00
2023-01-30T05:01:51.638Z,100.00
2023-01-30T05:04:19.822Z,100.00
2023-01-30T05:06:48.041Z,100.00
2023-01-30T05:09:16.444Z,100.00
2023-01-30T05:11:45.990Z,100.00
2023-01-30T05:14:14.117Z,100.00
2023-01-30T05:16:42.247Z,100.00
2023-01-30T05:19:12.112Z,100.00
2023-01-30T05:21:40.260Z,100.00
2023-01-30T05:24:08.880Z,100.00
2023-01-30T05:26:37.099Z,100.00
2023-01-30T05:29:06.658Z,100.00
2023-01-30T05:31:35.789Z,100.00
2023-01-30T05:34:03.931Z,100.00
2023-01-30T05:36:32.038Z,100.00
2023-01-30T05:39:00.151Z,100.00
2023-01-30T05:41:28.442Z,100.00
2023-01-30T05:43:56.538Z,100.00
2023-01-30T05:46:26.082Z,100.00
2023-01-30T05:48:54.179Z,100.00
2023-01-30T05:51:25.078Z,100.00
2023-01-30T05:53:53.621Z,100.00
2023-01-30T05:56:22.324Z,100.00
2023-01-30T05:58:55.132Z,100.00
2023-01-30T06:01:25.970Z,100.00
2023-01-30T06:03:54.962Z,100.00
2023-01-30T06:06:24.536Z,100.00
2023-01-30T06:08:54.767Z,100.00
2023-01-30T06:11:23.803Z,100.00
2023-01-30T06:13:52.005Z,100.00
2023-01-30T06:16:20.683Z,100.00
2023-01-30T06:18:50.305Z,100.00
2023-01-30T06:21:18.510Z,100.00
2023-01-30T06:23:46.605Z,100.00
2023-01-30T06:26:14.900Z,100.00
2023-01-30T06:28:43.214Z,100.00
2023-01-30T06:31:11.655Z,100.00
2023-01-30T06:33:39.840Z,100.00
2023-01-30T06:36:10.185Z,100.00
2023-01-30T06:38:38.302Z,100.00
2023-01-30T06:41:07.085Z,100.00
2023-01-30T06:43:35.131Z,100.00
2023-01-30T06:46:03.436Z,100.00
2023-01-30T06:48:31.838Z,100.00
2023-01-30T06:51:00.086Z,100.00
2023-01-30T06:53:31.367Z,100.00
2023-01-30T06:56:03.331Z,100.00
2023-01-30T06:58:31.573Z,100.00
2023-01-30T07:00:59.723Z,100.00
2023-01-30T07:03:27.899Z,100.00
2023-01-30T07:05:55.984Z,100.00
2023-01-30T07:08:24.415Z,100.00
2023-01-30T07:10:54.019Z,100.00
2023-01-30T07:13:22.151Z,100.00
2023-01-30T07:15:50.663Z,100.00
2023-01-30T07:18:19.087Z,100.00
2023-01-30T07:20:48.640Z,100.00
2023-01-30T07:23:18.012Z,100.00
2023-01-30T07:25:46.281Z,100.00
2023-01-30T07:28:15.755Z,100.00
2023-01-30T07:30:44.046Z,100.00
2023-01-30T07:33:12.184Z,100.00
2023-01-30T07:35:40.345Z,100.00
2023-01-30T07:38:08.500Z,100.00
2023-01-30T07:40:36.664Z,100.00
2023-01-30T07:43:07.020Z,100.00
2023-01-30T07:45:40.684Z,100.00
2023-01-30T07:48:10.016Z,100.00
2023-01-30T07:50:38.649Z,100.00
2023-01-30T07:53:07.863Z,100.00
2023-01-30T07:55:36.589Z,100.00
2023-01-30T07:58:05.221Z,100.00
2023-01-30T08:00:34.252Z,100.00
2023-01-30T08:03:03.803Z,100.00
2023-01-30T08:05:31.937Z,100.00
2023-01-30T08:08:00.970Z,100.00
2023-01-30T08:10:29.083Z,100.00
2023-01-30T08:12:57.211Z,100.00
2023-01-30T08:15:25.395Z,100.00
2023-01-30T08:17:57.720Z,100.00
2023-01-30T08:20:32.196Z,100.00
2023-01-30T08:23:02.070Z,100.00
2023-01-30T08:25:30.743Z,100.00
2023-01-30T08:27:59.985Z,100.00
2023-01-30T08:30:30.499Z,100.00
2023-01-30T08:32:59.334Z,100.00
2023-01-30T08:35:28.838Z,100.00
2023-01-30T08:37:57.021Z,100.00
2023-01-30T08:40:25.126Z,100.00
2023-01-30T08:42:53.255Z,100.00
2023-01-30T08:45:21.367Z,100.00
2023-01-30T08:47:49.778Z,100.00
2023-01-30T08:50:18.363Z,100.00
2023-01-30T08:52:48.157Z,100.00
2023-01-30T08:55:16.320Z,100.00
2023-01-30T08:57:44.518Z,100.00
2023-01-30T09:00:13.852Z,100.00
2023-01-30T09:02:41.992Z,100.00
2023-01-30T09:05:11.180Z,98.31
2023-01-30T09:07:39.377Z,98.26
2023-01-30T09:10:10.325Z,97.77
2023-01-30T09:12:38.571Z,98.09
2023-01-30T09:15:08.230Z,99.04
2023-01-30T09:17:36.632Z,99.80
2023-01-30T09:20:05.594Z,98.03
2023-01-30T09:22:33.709Z,97.10
2023-01-30T09:25:01.857Z,94.54
2023-01-30T09:27:31.441Z,96.94
2023-01-30T09:29:59.582Z,89.93
2023-01-30T09:32:27.873Z,93.52
2023-01-30T09:34:56.066Z,93.66
2023-01-30T09:37:24.237Z,93.06
2023-01-30T09:39:52.339Z,92.86
2023-01-30T09:42:57.729Z,90.64
2023-01-30T09:45:38.935Z,93.17
2023-01-30T09:48:18.250Z,94.54
2023-01-30T09:51:10.653Z,93.32
2023-01-30T09:53:51.584Z,90.08
2023-01-30T09:56:19.723Z,92.00
2023-01-30T09:58:53.265Z,86.20
2023-01-30T10:01:30.370Z,86.31
2023-01-30T10:04:10.488Z,84.69
2023-01-30T10:06:47.822Z,83.51
2023-01-30T10:09:24.033Z,85.27
2023-01-30T10:12:07.357Z,85.93
2023-01-30T10:14:56.913Z,87.36
2023-01-30T10:17:34.281Z,86.98
2023-01-30T10:20:22.754Z,87.41
2023-01-30T10:23:02.298Z,87.21
2023-01-30T10:25:35.604Z,83.63
2023-01-30T10:28:12.408Z,83.03
2023-01-30T10:30:42.637Z,83.58
2023-01-30T10:33:21.126Z,85.03
2023-01-30T10:36:00.986Z,86.36
2023-01-30T10:38:35.490Z,83.30
2023-01-30T10:41:11.639Z,83.89
2023-01-30T10:43:44.185Z,79.94
2023-01-30T10:46:32.041Z,80.23
2023-01-30T10:49:04.273Z,75.73
2023-01-30T10:51:45.428Z,74.38
2023-01-30T10:54:19.717Z,73.12
2023-01-30T10:56:55.886Z,74.75
2023-01-30T10:59:29.705Z,76.03
2023-01-30T11:02:13.785Z,73.83
2023-01-30T11:04:50.053Z,73.48
2023-01-30T11:07:18.273Z,69.72
2023-01-30T11:09:48.572Z,69.20
2023-01-30T11:12:16.976Z,66.67
2023-01-30T11:14:56.522Z,66.14
2023-01-30T11:17:34.460Z,65.47
2023-01-30T11:20:17.037Z,65.90
2023-01-30T11:22:51.192Z,63.74
2023-01-30T11:25:22.165Z,62.65
2023-01-30T11:27:55.371Z,62.75
2023-01-30T11:30:28.829Z,64.74
2023-01-30T11:33:12.448Z,62.71
2023-01-30T11:35:45.875Z,60.99
2023-01-30T11:38:23.475Z,59.10
2023-01-30T11:40:51.798Z,56.97
2023-01-30T11:43:20.579Z,59.97
2023-01-30T11:45:51.211Z,59.72
2023-01-30T11:49:02.420Z,60.83
2023-01-30T11:51:13.374Z,59.96
2023-01-30T11:53:46.005Z,58.77
2023-01-30T11:56:21.326Z,59.47
2023-01-30T11:58:59.244Z,57.15
2023-01-30T12:01:29.635Z,57.58
2023-01-30T12:04:00.583Z,57.45
2023-01-30T12:06:31.908Z,55.51
2023-01-30T12:09:00.236Z,55.98
2023-01-30T12:11:44.922Z,58.16
2023-01-30T12:14:39.897Z,56.96
2023-01-30T12:17:18.997Z,58.20
2023-01-30T12:19:59.740Z,58.72
2023-01-30T12:22:33.297Z,56.62
2023-01-30T12:25:03.117Z,56.61
2023-01-30T12:27:50.050Z,57.53
2023-01-30T12:30:26.355Z,57.36
2023-01-30T12:32:59.655Z,57.09
2023-01-30T12:35:43.145Z,58.70
2023-01-30T12:38:23.211Z,58.66
2023-01-30T12:41:03.248Z,57.01
2023-01-30T12:43:46.726Z,58.32
2023-01-30T12:46:36.723Z,57.65
2023-01-30T12:49:20.888Z,58.24
2023-01-30T12:52:14.990Z,56.02
2023-01-30T12:54:50.219Z,56.55
2023-01-30T12:57:28.279Z,56.46
2023-01-30T13:00:06.690Z,57.47
2023-01-30T13:02:49.919Z,54.82
2023-01-30T13:05:26.738Z,55.11
2023-01-30T13:08:10.977Z,55.07
2023-01-30T13:10:45.569Z,55.77
2023-01-30T13:13:22.074Z,56.83
2023-01-30T13:15:57.698Z,56.42
2023-01-30T13:18:33.122Z,58.08
2023-01-30T13:21:08.453Z,56.86
2023-01-30T13:23:50.452Z,56.65
2023-01-30T13:26:22.428Z,56.92
2023-01-30T13:28:54.387Z,55.55
2023-01-30T13:31:26.166Z,54.61
2023-01-30T13:34:04.737Z,54.81
2023-01-30T13:36:41.787Z,55.01
2023-01-30T13:41:51.354Z,53.02
2023-01-30T13:44:23.721Z,53.50
2023-01-30T13:46:55.840Z,52.59
2023-01-30T13:49:31.861Z,53.19
2023-01-30T13:52:05.530Z,51.46
2023-01-30T13:54:53.643Z,53.67
2023-01-30T13:57:33.942Z,55.75
2023-01-30T14:00:25.251Z,57.06
2023-01-30T14:03:31.533Z,57.67
2023-01-30T14:06:14.490Z,57.30
2023-01-30T14:08:52.149Z,58.72
2023-01-30T14:11:34.606Z,58.27
2023-01-30T14:14:06.350Z,59.18
2023-01-30T14:16:50.019Z,60.62
2023-01-30T14:19:30.706Z,58.82
2023-01-30T14:22:01.301Z,60.64
2023-01-30T14:24:31.523Z,60.15
2023-01-30T14:27:27.526Z,61.78
2023-01-30T14:29:57.384Z,60.08
2023-01-30T14:32:55.010Z,61.71
2023-01-30T14:35:30.953Z,64.23
2023-01-30T14:38:14.864Z,64.01
2023-01-30T14:40:58.748Z,66.40
2023-01-30T14:43:54.028Z,68.63
2023-01-30T14:46:54.747Z,71.18
2023-01-30T14:49:30.991Z,69.81
2023-01-30T14:51:59.975Z,70.56
2023-01-30T14:54:42.204Z,70.20
2023-01-30T14:57:21.371Z,71.07
2023-01-30T15:00:13.447Z,71.29
2023-01-30T15:02:44.799Z,72.44
2023-01-30T15:05:16.859Z,72.43
2023-01-30T15:07:48.464Z,73.19
2023-01-30T15:10:33.827Z,76.79
2023-01-30T15:13:32.617Z,77.03
2023-01-30T15:16:16.285Z,84.04
2023-01-30T15:19:05.018Z,89.06
2023-01-30T15:21:55.042Z,92.41
2023-01-30T15:25:01.640Z,93.52
2023-01-30T15:27:38.719Z,96.61
2023-01-30T15:30:28.750Z,99.59
2023-01-30T15:33:26.112Z,100.00
2023-01-30T15:35:54.585Z,100.00
2023-01-30T15:38:28.647Z,100.00
2023-01-30T15:40:59.396Z,94.22
2023-01-30T15:43:54.663Z,94.24
2023-01-30T15:46:34.059Z,90.65
2023-01-30T15:49:38.633Z,91.99
2023-01-30T15:52:13.485Z,86.88
2023-01-30T15:54:42.686Z,88.11
2023-01-30T15:57:19.242Z,90.77
2023-01-30T15:59:49.144Z,94.67
2023-01-30T16:02:24.910Z,100.00
2023-01-30T16:05:08.163Z,100.00
2023-01-30T16:07:36.570Z,100.00
2023-01-30T16:10:07.576Z,100.00
2023-01-30T16:12:41.168Z,100.00
2023-01-30T16:15:19.615Z,100.00
2023-01-30T16:17:58.763Z,100.00
2023-01-30T16:20:29.087Z,100.00
2023-01-30T16:22:57.997Z,100.00
2023-01-30T16:25:30.067Z,100.00
2023-01-30T16:27:58.815Z,100.00
2023-01-30T16:30:30.837Z,100.00
2023-01-30T16:32:59.118Z,100.00
2023-01-30T16:35:34.341Z,100.00
2023-01-30T16:38:05.707Z,100.00
2023-01-30T16:40:45.857Z,100.00
2023-01-30T16:43:22.023Z,100.00
2023-01-30T16:46:33.145Z,100.00
2023-01-30T16:49:05.749Z,100.00
2023-01-30T16:51:35.561Z,100.00
2023-01-30T16:54:06.327Z,100.00
2023-01-30T16:56:35.864Z,100.00
2023-01-30T16:59:05.855Z,100.00
2023-01-30T17:01:40.272Z,100.00
2023-01-30T17:04:18.946Z,100.00
2023-01-30T17:06:54.730Z,100.00
2023-01-30T17:09:39.093Z,100.00
2023-01-30T17:12:38.657Z,100.00
2023-01-30T17:15:35.806Z,100.00
2023-01-30T17:18:04.275Z,100.00
2023-01-30T17:20:39.413Z,100.00
2023-01-30T17:23:11.655Z,100.00
2023-01-30T17:25:45.193Z,100.00
2023-01-30T17:28:21.402Z,100.00
2023-01-30T17:30:51.034Z,100.00
2023-01-30T17:33:19.745Z,100.00
2023-01-30T17:35:48.509Z,100.00
2023-01-30T17:38:18.766Z,100.00
2023-01-30T17:40:48.024Z,100.00
2023-01-30T17:43:17.162Z,100.00
2023-01-30T17:45:45.934Z,100.00
2023-01-30T17:48:15.057Z,100.00
2023-01-30T17:50:44.130Z,100.00
2023-01-30T17:53:13.306Z,100.00
2023-01-30T17:55:44.131Z,100.00
2023-01-30T17:58:18.958Z,100.00
2023-01-30T18:00:48.301Z,100.00
2023-01-30T18:03:17.484Z,100.00
2023-01-30T18:05:47.926Z,100.00
2023-01-30T18:08:16.879Z,100.00
2023-01-30T18:10:49.150Z,100.00
2023-01-30T18:13:18.758Z,100.00
2023-01-30T18:15:48.655Z,100.00
2023-01-30T18:18:19.483Z,100.00
2023-01-30T18:20:49.047Z,100.00
2023-01-30T18:23:20.205Z,100.00
2023-01-30T18:25:53.737Z,100.00
2023-01-30T18:28:24.949Z,100.00
2023-01-30T18:30:55.034Z,100.00
2023-01-30T18:33:25.047Z,100.00
2023-01-30T18:35:54.503Z,100.00
2023-01-30T18:38:24.105Z,96.68
2023-01-30T18:40:55.140Z,94.34
2023-01-30T18:43:30.558Z,92.37
2023-01-30T18:46:09.137Z,90.90
2023-01-30T18:48:39.762Z,92.01
2023-01-30T18:51:12.027Z,90.79
2023-01-30T18:53:42.705Z,90.58
2023-01-30T18:56:19.244Z,89.59
2023-01-30T18:58:50.150Z,90.14
2023-01-30T19:01:21.191Z,88.22
2023-01-30T19:03:51.512Z,88.44
2023-01-30T19:06:22.973Z,88.71
2023-01-30T19:08:53.110Z,89.00
2023-01-30T19:11:42.158Z,88.87
2023-01-30T19:14:12.473Z,88.39
2023-01-30T19:16:42.508Z,86.89
2023-01-30T19:19:12.435Z,86.76
2023-01-30T19:21:41.822Z,85.94
2023-01-30T19:24:16.011Z,84.49
2023-01-30T19:26:47.640Z,79.52
2023-01-30T19:29:17.608Z,78.02
2023-01-30T19:31:47.493Z,76.91
2023-01-30T19:34:17.752Z,75.43
2023-01-30T19:36:47.695Z,73.01
2023-01-30T19:39:17.737Z,73.49
2023-01-30T19:41:49.014Z,73.27
2023-01-30T19:44:19.531Z,73.80
2023-01-30T19:46:49.539Z,73.67
2023-01-30T19:49:21.328Z,73.33
2023-01-30T19:51:51.630Z,72.53
2023-01-30T19:54:21.814Z,71.64
2023-01-30T19:56:54.200Z,72.29
2023-01-30T19:59:24.620Z,70.98
2023-01-30T20:01:56.262Z,72.02
2023-01-30T20:04:25.872Z,72.32
2023-01-30T20:06:56.025Z,71.95
2023-01-30T20:09:28.238Z,73.67
2023-01-30T20:11:58.821Z,73.11
2023-01-30T20:14:28.010Z,73.12
2023-01-30T20:16:59.519Z,71.50
2023-01-30T20:19:31.065Z,71.91
2023-01-30T20:22:02.984Z,72.56
2023-01-30T20:24:33.866Z,73.89
2023-01-30T20:27:06.572Z,74.28
2023-01-30T20:29:39.282Z,74.15
2023-01-30T20:32:09.286Z,76.80
2023-01-30T20:34:38.729Z,77.36
2023-01-30T20:37:10.119Z,77.86
2023-01-30T20:39:39.771Z,80.43
2023-01-30T20:42:09.783Z,83.35
2023-01-30T20:44:38.919Z,86.99
2023-01-30T20:47:14.998Z,90.50
2023-01-30T20:49:45.020Z,92.92
2023-01-30T20:52:14.631Z,94.07
2023-01-30T20:54:43.961Z,96.63
2023-01-30T20:57:16.030Z,96.24
2023-01-30T20:59:47.504Z,97.37
2023-01-30T21:02:16.751Z,96.95
2023-01-30T21:04:46.097Z,94.73
2023-01-30T21:07:15.049Z,96.11
2023-01-30T21:09:45.414Z,95.69
2023-01-30T21:12:16.163Z,96.51
2023-01-30T21:14:44.761Z,96.75
2023-01-30T21:17:13.188Z,97.11
2023-01-30T21:19:43.485Z,97.17
2023-01-30T21:22:12.319Z,97.66
2023-01-30T21:24:41.163Z,98.68
2023-01-30T21:27:09.808Z,97.19
2023-01-30T21:29:40.415Z,94.13
2023-01-30T21:32:08.768Z,93.46
2023-01-30T21:34:37.935Z,93.19
2023-01-30T21:37:23.795Z,93.82
2023-01-30T21:40:09.322Z,93.90
2023-01-30T21:42:54.949Z,94.39
2023-01-30T21:45:24.633Z,94.73
2023-01-30T21:47:54.200Z,94.37
2023-01-30T21:50:22.736Z,92.37
2023-01-30T21:52:50.986Z,94.12
2023-01-30T21:55:19.323Z,91.05
2023-01-30T21:57:47.635Z,91.69
2023-01-30T22:00:16.250Z,91.58
2023-01-30T22:02:45.996Z,92.21
2023-01-30T22:05:14.096Z,92.66
2023-01-30T22:07:42.239Z,92.23
2023-01-30T22:10:11.627Z,92.92
2023-01-30T22:12:41.540Z,93.11
2023-01-30T22:15:10.356Z,94.32
2023-01-30T22:17:38.653Z,94.11
2023-01-30T22:20:10.165Z,95.35
2023-01-30T22:22:38.677Z,94.79
2023-01-30T22:25:07.722Z,96.27
2023-01-30T22:27:36.180Z,96.96
2023-01-30T22:30:04.448Z,97.81
2023-01-30T22:32:32.544Z,99.09
2023-01-30T22:35:00.675Z,98.91
2023-01-30T22:37:30.204Z,95.94
2023-01-30T22:39:58.286Z,94.94
2023-01-30T22:42:26.420Z,94.40
2023-01-30T22:44:57.642Z,94.86
2023-01-30T22:47:39.503Z,94.87
2023-01-30T22:50:13.034Z,95.83
2023-01-30T22:52:42.545Z,96.28
2023-01-30T22:55:11.096Z,95.86
2023-01-30T22:57:39.349Z,95.98
2023-01-30T23:00:09.071Z,96.10
2023-01-30T23:02:37.229Z,95.92
2023-01-30T23:05:05.939Z,96.90
2023-01-30T23:07:34.023Z,96.43
2023-01-30T23:10:03.485Z,95.62
2023-01-30T23:12:48.774Z,95.93
2023-01-30T23:15:17.382Z,95.39
2023-01-30T23:18:02.870Z,95.53
2023-01-30T23:20:31.773Z,96.10
2023-01-30T23:22:59.817Z,95.55
2023-01-30T23:25:29.327Z,95.95
2023-01-30T23:27:57.409Z,96.14
2023-01-30T23:30:25.502Z,96.95
2023-01-30T23:32:53.551Z,97.03
2023-01-30T23:35:22.196Z,96.94
2023-01-30T23:38:16.232Z,97.69
2023-01-30T23:40:46.595Z,97.44
2023-01-30T23:43:14.760Z,96.26
2023-01-30T23:45:43.354Z,96.21
2023-01-30T23:48:11.700Z,94.55
2023-01-30T23:50:42.244Z,93.14
2023-01-30T23:53:11.045Z,93.28
2023-01-30T23:55:39.075Z,91.14
2023-01-30T23:58:08.522Z,89.56
